Cherokee Village, Louisiana
Current Conditions -  °F | °C
As of 2:53 PM on Wednesday 17 Dec 2014 (Local Time) from KAEX Reporting Station
Overcast Overcast  
Wind Chill: 56°   Ceiling: 11000
Heat Index: 56°   Visibility: 10mi
Dew Point: 39°   Wind: 5mph
Humidity: 53%   Direction: 130°SE
Pressure: 30.18"   Gusts: NA
Location:  31.2655°N, 92.4705°W
Report Text: KAEX 172053Z 13004KT 10SM OVC110 13/04 A3018 RMK AO2 SLP225 T01330039 56027
Loading
Personal Weather Stations






























Interactive Weather Map New forecast layout! Learn more

10-Day Weather Forecast

Advertisements
Track Severe Weather on mobile